Brown City, Michigan
Current Conditions -  °F | °C
As of 1:33 AM on Thursday 29 Jan 2015 (Local Time) from KD95 Reporting Station
Overcast Overcast  
Wind Chill: 16°   Ceiling: 9000
Heat Index: 25°   Visibility: 10mi
Dew Point: 14°   Wind: 9mph
Humidity: 63%   Direction: 160°SSE
Pressure: 30.04"   Gusts: NA
Location:  43.21°N, 82.99°W
Report Text: KD95 290633Z AUTO 16008KT 10SM SCT075 OVC090 M04/M10 A3004 RMK AO2 T10371099
Loading
Personal Weather Stations






























Interactive Weather Map New forecast layout! Learn more

10-Day Weather Forecast

Advertisements
Track Severe Weather on mobile